Latest Weather Observations for Sydney - Observatory Hill

IDN60901

Issued at 9:51 pm EDT Thursday 17 January 2019 (issued every 10 minutes, with the page automatically refreshed every 10 minutes)

About weather observations | Map of Sydney area stations | Latest observations for Sydney area | Other Formats
Station Details ID: 066062 Name: SYDNEY (OBSERVATORY HILL) Lat: -33.86 Lon: 151.21 Height: 39.0 m
Data from the previous 72 hours. | See also: Recent months at Sydney - Observatory Hill

* Apparent temperature (App Temp) for Sydney - Observatory Hill is calculated using temperature observations collected at Sydney - Observatory Hill and wind observations collected at Fort Denison, as wind observations are not currently provided for Sydney - Observatory Hill.

Date/Time
EDT
Temp
°C
App
Temp
°C
Dew
Point
°C
Rel
Hum
%
Delta-T
°C
Wind Press
QNH
hPa
Press
MSL
hPa
Rain since
9am
mm
Dir  Spd
km/h
Gust
km/h
Spd
kts
Gust
kts
17/09:30pm 24.2 23.6 18.8 72 3.4 NE 20 - 11 - 1008.8 1008.6 0.0
17/09:00pm 24.6 23.4 18.3 68 4.0 NE 22 - 12 - 1008.7 1008.5 0.0
17/08:30pm 25.0 23.7 18.2 66 4.3 NE 22 - 12 - 1008.6 1008.4 0.0
17/08:00pm 25.3 24.1 18.5 66 4.3 NE 22 - 12 - 1008.3 1008.1 0.0
17/07:30pm 25.5 24.3 18.4 65 4.5 NE 22 - 12 - 1008.2 1008.0 0.0
17/07:00pm 26.0 24.5 17.6 60 5.3 NE 22 - 12 - 1008.0 1007.8 0.0
17/06:30pm 26.5 26.1 18.1 60 5.3 NE 17 - 9 - 1007.7 1007.5 0.0
17/06:00pm 27.3 27.4 18.3 58 5.7 ENE 15 - 8 - 1007.7 1007.5 0.0
17/05:30pm 28.1 29.9 18.8 57 6.0 E 7 - 4 - 1007.8 1007.6 0.0
17/05:00pm 28.2 28.4 18.6 56 6.2 E 15 - 8 - 1008.0 1007.8 0.0
17/04:30pm 28.4 29.2 19.1 57 6.0 E 13 - 7 - 1008.1 1007.9 0.0
17/04:00pm 27.8 28.5 18.8 58 5.8 ENE 13 - 7 - 1008.6 1008.4 0.0
17/03:30pm 27.7 27.2 19.2 60 5.5 ENE 20 - 11 - 1008.8 1008.6 0.0
17/03:00pm 27.7 26.5 19.2 60 5.5 ENE 24 - 13 - 1009.3 1009.1 0.0
17/02:30pm 27.6 27.1 19.9 63 5.0 ENE 22 - 12 - 1009.5 1009.3 0.0
17/02:00pm 27.7 27.4 20.3 64 4.9 ENE 22 - 12 - 1009.9 1009.7 0.0
17/01:30pm 27.2 27.3 20.3 66 4.5 E 20 - 11 - 1010.3 1010.1 0.0
17/01:00pm 27.4 26.6 19.2 61 5.3 E 22 - 12 - 1010.5 1010.3 0.0
17/12:30pm 28.3 28.3 20.1 61 5.4 E 20 - 11 - 1010.9 1010.7 0.0
17/12:00pm 27.8 27.8 19.8 61 5.2 ENE 19 - 10 - 1011.2 1011.0 0.0
17/11:30am 26.7 25.5 19.3 64 4.8 ENE 24 - 13 - 1011.4 1011.3 0.0
17/11:00am 28.1 27.8 19.6 60 5.5 E 20 - 11 - 1011.5 1011.4 0.0
17/10:30am 28.7 29.8 20.4 60 5.5 E 15 - 8 - 1012.0 1011.9 0.0
17/10:00am 27.2 30.3 20.3 66 4.5 S 4 - 2 - 1012.1 1012.0 0.0
17/09:30am 26.2 30.1 20.3 70 3.9 CALM 0 - 0 - 1012.4 1012.3 0.0
17/09:00am 25.0 28.0 20.0 74 3.2 N 4 - 2 - 1012.8 1012.7 0.0
17/08:30am 24.7 27.7 20.0 75 3.0 NNE 4 - 2 - 1012.9 1012.8 0.0
17/08:00am 23.8 26.3 19.9 79 2.5 N 6 - 3 - 1012.8 1012.7 0.0
17/07:30am 23.3 25.8 19.9 81 2.2 NNE 6 - 3 - 1012.5 1012.4 0.0
17/07:00am 23.1 26.0 19.9 82 2.1 ENE 4 - 2 - 1012.6 1012.5 0.0
17/06:30am 23.0 26.3 20.0 83 1.9 NE 2 - 1 - 1012.6 1012.5 0.0
17/06:00am 22.8 26.0 19.8 83 1.9 SE 2 - 1 - 1012.3 1012.2 0.0
17/05:30am 22.9 25.7 19.7 82 2.1 E 4 - 2 - 1012.4 1012.3 0.0
17/05:00am 23.0 25.3 19.8 82 2.1 ESE 7 - 4 - 1012.0 1011.9 0.0
17/04:30am 23.0 25.6 20.0 83 1.9 ESE 6 - 3 - 1011.8 1011.7 0.0
17/04:00am 23.1 25.7 20.1 83 1.9 E 6 - 3 - 1011.7 1011.6 0.0
17/03:30am 23.0 24.2 20.0 83 1.9 ESE 13 - 7 - 1011.7 1011.6 0.0
17/03:00am 23.0 24.9 19.8 82 2.1 SE 9 - 5 - 1012.0 1011.9 0.0
17/02:30am 23.0 25.0 20.0 83 1.9 SE 9 - 5 - 1012.1 1012.0 0.0
17/02:00am 23.0 24.6 20.0 83 1.9 SE 11 - 6 - 1012.2 1012.1 0.0
17/01:30am 23.0 23.9 20.0 83 1.9 ESE 15 - 8 - 1011.9 1011.8 0.0
17/01:00am 23.1 24.4 20.1 83 1.9 ESE 13 - 7 - 1012.1 1012.0 0.0
17/12:30am 23.2 25.2 20.0 82 2.1 ESE 9 - 5 - 1012.4 1012.3 0.0
17/12:00am 23.2 25.5 19.8 81 2.2 ESE 7 - 4 - 1012.4 1012.3 0.0
 
Date/Time
EDT
Temp
°C
App
Temp
°C
Dew
Point
°C
Rel
Hum
%
Delta-T
°C
Wind Press
QNH
hPa
Press
MSL
hPa
Rain since
9am
mm
Dir  Spd
km/h
Gust
km/h
Spd
kts
Gust
kts
16/11:30pm 23.3 24.4 19.7 80 2.3 E 13 - 7 - 1011.9 1011.8 0.0
16/11:00pm 23.5 24.6 19.6 79 2.5 E 13 - 7 - 1011.5 1011.4 0.0
16/10:30pm 23.7 24.7 19.4 77 2.8 E 13 - 7 - 1011.4 1011.3 0.0
16/10:00pm 23.8 25.5 19.3 76 2.9 E 9 - 5 - 1011.0 1010.8 0.0
16/09:30pm 24.0 25.8 19.5 76 2.9 E 9 - 5 - 1010.6 1010.4 0.0
16/09:00pm 23.9 24.4 19.2 75 3.0 E 15 - 8 - 1010.3 1010.1 0.0
16/08:30pm 24.2 24.7 19.3 74 3.1 E 15 - 8 - 1009.9 1009.7 0.0
16/08:00pm 24.8 25.7 19.2 71 3.6 E 13 - 7 - 1009.5 1009.3 0.0
16/07:30pm 25.5 26.8 19.4 69 3.9 E 11 - 6 - 1008.8 1008.6 0.0
16/07:00pm 25.7 27.1 19.6 69 3.9 ENE 11 - 6 - 1008.8 1008.6 0.0
16/06:30pm 26.0 27.6 19.9 69 4.0 E 11 - 6 - 1008.6 1008.4 0.0
16/06:00pm 26.2 26.5 19.6 67 4.3 E 17 - 9 - 1008.4 1008.2 0.0
16/05:30pm 27.0 26.7 19.6 64 4.8 E 20 - 11 - 1008.4 1008.2 0.0
16/05:00pm 27.7 28.2 19.2 60 5.5 E 15 - 8 - 1008.5 1008.3 0.0
16/04:30pm 28.2 28.3 19.2 58 5.8 E 17 - 9 - 1008.7 1008.5 0.0
16/04:00pm 28.6 28.6 19.0 56 6.2 E 17 - 9 - 1008.8 1008.6 0.0
16/03:30pm 28.6 28.7 19.2 56 6.1 E 17 - 9 - 1009.2 1009.0 0.0
16/03:00pm 29.0 28.9 19.6 57 6.1 E 19 - 10 - 1009.4 1009.2 0.0
16/02:30pm 28.3 28.0 19.5 59 5.7 E 20 - 11 - 1009.4 1009.2 0.0
16/02:00pm 28.5 28.4 20.0 60 5.6 E 20 - 11 - 1009.6 1009.4 0.0
16/01:30pm 28.7 28.6 19.9 59 5.8 E 20 - 11 - 1009.7 1009.5 0.0
16/01:00pm 28.5 28.5 19.7 59 5.8 E 19 - 10 - 1010.0 1009.8 0.0
16/12:30pm 28.7 28.9 19.3 56 6.1 E 17 - 9 - 1010.3 1010.1 0.0
16/12:00pm 29.3 29.7 19.9 57 6.2 E 17 - 9 - 1010.4 1010.2 0.0
16/11:30am 29.7 30.8 19.7 55 6.6 E 13 - 7 - 1010.5 1010.3 0.0
16/11:00am 29.6 30.8 19.9 56 6.4 ESE 13 - 7 - 1010.5 1010.3 0.0
16/10:30am 29.4 30.9 20.5 58 5.9 E 13 - 7 - 1010.4 1010.2 0.0
16/10:00am 27.3 28.9 19.1 61 5.3 S 9 - 5 - 1010.6 1010.4 0.0
16/09:30am 26.9 30.2 20.0 66 4.5 SSW 2 - 1 - 1010.7 1010.5 0.0
16/09:00am 26.6 29.6 20.0 67 4.3 ENE 4 - 2 - 1010.6 1010.4 0.0
16/08:30am 25.3 28.7 20.1 73 3.4 ENE 2 - 1 - 1010.6 1010.4 0.0
16/08:00am 23.9 27.1 19.8 78 2.6 ENE 2 - 1 - 1010.3 1010.1 0.0
16/07:30am 23.1 25.6 19.9 82 2.1 E 6 - 3 - 1009.9 1009.7 0.0
16/07:00am 22.6 25.3 19.4 82 2.0 ESE 4 - 2 - 1009.7 1009.5 0.0
16/06:30am 22.5 24.7 19.3 82 2.0 ESE 6 - 3 - 1009.2 1009.0 0.0
16/06:00am 22.3 24.5 19.1 82 2.0 ESE 6 - 3 - 1009.0 1008.8 0.0
16/05:30am 22.4 24.5 19.4 83 1.9 ENE 7 - 4 - 1008.8 1008.6 0.0
16/05:00am 22.4 24.6 19.2 82 2.0 NE 6 - 3 - 1008.6 1008.4 0.0
16/04:30am 22.4 24.4 19.2 82 2.0 N 7 - 4 - 1009.2 1009.0 0.0
16/04:00am 22.6 24.9 19.4 82 2.0 ESE 6 - 3 - 1008.5 1008.3 0.0
16/03:30am 22.6 23.9 19.4 82 2.0 ENE 11 - 6 - 1008.5 1008.3 0.0
16/03:00am 22.7 24.9 19.5 82 2.0 ENE 7 - 4 - 1008.6 1008.4 0.0
16/02:30am 22.8 24.6 19.6 82 2.0 E 9 - 5 - 1008.8 1008.6 0.0
16/02:00am 23.0 25.3 19.4 80 2.3 E 6 - 3 - 1009.1 1008.9 0.0
16/01:30am 23.1 25.3 19.5 80 2.3 ENE 7 - 4 - 1009.2 1009.0 0.0
16/01:00am 23.1 24.9 19.5 80 2.3 NE 9 - 5 - 1009.6 1009.4 0.0
16/12:30am 23.2 22.8 19.4 79 2.4 E 20 - 11 - 1009.7 1009.5 0.0
16/12:00am 23.5 24.5 19.4 78 2.6 ENE 13 - 7 - 1010.1 1009.9 0.0
 
Date/Time
EDT
Temp
°C
App
Temp
°C
Dew
Point
°C
Rel
Hum
%
Delta-T
°C
Wind Press
QNH
hPa
Press
MSL
hPa
Rain since
9am
mm
Dir  Spd
km/h
Gust
km/h
Spd
kts
Gust
kts
15/11:30pm 23.8 24.8 19.5 77 2.8 NE 13 - 7 - 1010.2 1010.0 0.0
15/11:00pm 24.0 25.0 19.5 76 2.9 NE 13 - 7 - 1010.6 1010.4 0.0
15/10:30pm 24.2 25.2 19.5 75 3.0 ENE 13 - 7 - 1010.5 1010.3 0.0
15/10:00pm 24.3 25.3 19.4 74 3.1 ENE 13 - 7 - 1010.3 1010.1 0.0
15/09:30pm 24.5 23.5 19.6 74 3.2 NE 24 - 13 - 1010.1 1009.9 0.0
15/09:00pm 24.5 21.8 19.3 73 3.3 NNE 32 - 17 - 1009.8 1009.6 0.0
15/08:30pm 24.7 22.5 19.5 73 3.3 NNE 30 - 16 - 1009.6 1009.4 0.0
15/08:00pm 25.1 23.5 19.2 70 3.8 NE 26 - 14 - 1009.4 1009.2 0.0
15/07:30pm 25.4 23.0 19.1 68 4.0 NE 30 - 16 - 1009.2 1009.0 0.0
15/07:00pm 26.1 24.1 19.2 65 4.4 NE 28 - 15 - 1009.2 1009.0 0.0
15/06:30pm 26.6 26.1 19.0 63 4.9 NE 20 - 11 - 1009.3 1009.1 0.0
15/06:00pm 26.8 24.3 18.9 62 5.1 NE 30 - 16 - 1009.1 1008.9 0.0
15/05:30pm 27.7 26.4 19.0 59 5.6 NE 24 - 13 - 1009.0 1008.8 0.0
15/05:00pm 27.6 27.0 18.9 59 5.6 NE 20 - 11 - 1009.1 1008.9 0.0
15/04:30pm 28.1 27.1 18.8 57 6.0 NE 22 - 12 - 1009.3 1009.1 0.0
15/04:00pm 28.1 26.2 18.5 56 6.2 ENE 26 - 14 - 1009.7 1009.5 0.0
15/03:30pm 28.3 27.4 19.0 57 6.0 ENE 22 - 12 - 1010.2 1010.0 0.0
15/03:00pm 28.3 27.1 19.2 57 5.9 ENE 24 - 13 - 1010.7 1010.5 0.0
15/02:30pm 28.1 25.9 18.8 57 6.0 ENE 28 - 15 - 1011.1 1010.9 0.0
15/02:00pm 27.9 26.0 18.6 57 6.0 ENE 26 - 14 - 1011.4 1011.3 0.0
15/01:30pm 28.4 26.6 18.8 56 6.2 ENE 26 - 14 - 1011.6 1011.5 0.0
15/01:00pm 28.0 26.3 19.0 58 5.8 ENE 26 - 14 - 1012.1 1012.0 0.0
15/12:30pm 27.8 26.0 18.8 58 5.8 ENE 26 - 14 - 1012.5 1012.4 0.0
15/12:00pm 27.4 26.0 18.7 59 5.6 ENE 24 - 13 - 1012.8 1012.7 0.0
15/11:30am 27.4 26.0 18.7 59 5.6 ENE 24 - 13 - 1013.1 1013.0 0.0
15/11:00am 27.5 26.3 18.5 58 5.8 ENE 22 - 12 - 1013.4 1013.3 0.0
15/10:30am 27.9 27.5 18.9 58 5.8 ENE 19 - 10 - 1013.6 1013.5 0.0
15/10:00am 27.2 27.0 18.5 59 5.6 E 17 - 9 - 1013.7 1013.6 0.0
15/09:30am 26.8 27.2 18.9 62 5.1 ENE 15 - 8 - 1014.0 1013.9 0.0
15/09:00am 26.2 26.9 18.9 64 4.7 NE 13 - 7 - 1014.3 1014.2 0.0
15/08:30am 25.8 26.6 19.0 66 4.4 ENE 13 - 7 - 1014.4 1014.3 0.0
15/08:00am 25.0 25.8 19.1 70 3.8 NE 13 - 7 - 1014.2 1014.1 0.0
15/07:30am 24.0 24.8 19.1 74 3.1 NNE 13 - 7 - 1014.5 1014.4 0.0
15/07:00am 23.2 24.7 18.9 77 2.7 NNE 9 - 5 - 1014.4 1014.3 0.0
15/06:30am 22.8 23.5 18.8 78 2.5 NE 13 - 7 - 1013.9 1013.8 0.0
15/06:00am 22.7 24.2 18.9 79 2.4 NE 9 - 5 - 1013.6 1013.5 0.0
15/05:30am 22.6 23.7 18.8 79 2.4 NE 11 - 6 - 1013.4 1013.3 0.0
15/05:00am 22.6 24.0 18.6 78 2.5 NE 9 - 5 - 1013.5 1013.4 0.0
15/04:30am 22.7 23.3 18.7 78 2.5 NE 13 - 7 - 1013.4 1013.3 0.0
15/04:00am 22.7 24.1 18.7 78 2.5 NE 9 - 5 - 1013.3 1013.2 0.0
15/03:30am 22.8 23.0 18.6 77 2.6 ENE 15 - 8 - 1013.2 1013.1 0.0
15/03:00am 22.9 23.8 18.4 76 2.8 ENE 11 - 6 - 1013.5 1013.4 0.0
15/02:30am 23.0 23.2 18.5 76 2.8 ENE 15 - 8 - 1014.0 1013.9 0.0
15/02:00am 23.2 24.5 18.5 75 3.0 NE 9 - 5 - 1014.3 1014.2 0.0
15/01:30am 23.3 23.8 18.4 74 3.1 ENE 13 - 7 - 1014.0 1013.9 0.0
15/01:00am 23.4 24.0 18.5 74 3.1 ENE 13 - 7 - 1014.2 1014.1 0.0
15/12:30am 23.5 25.2 18.6 74 3.1 NE 7 - 4 - 1014.3 1014.2 0.0
15/12:00am 23.5 24.1 18.6 74 3.1 NE 13 - 7 - 1014.4 1014.3 0.0
 
Date/Time
EDT
Temp
°C
App
Temp
°C
Dew
Point
°C
Rel
Hum
%
Delta-T
°C
Wind Press
QNH
hPa
Press
MSL
hPa
Rain since
9am
mm
Dir  Spd
km/h
Gust
km/h
Spd
kts
Gust
kts
14/11:30pm 23.6 24.6 18.7 74 3.1 ENE 11 - 6 - 1014.5 1014.4 0.0
14/11:00pm 23.7 24.5 19.0 75 3.0 NE 13 - 7 - 1014.7 1014.6 0.0
14/10:30pm 23.8 24.2 18.9 74 3.1 NE 15 - 8 - 1014.8 1014.7 0.0
14/10:00pm 23.9 24.3 19.0 74 3.1 NE 15 - 8 - 1014.8 1014.7 0.0

Latest Capital City Observations: Canberra | Sydney | Melbourne | Brisbane | Adelaide | Perth | Hobart | Darwin

Other Formats:

Comma delimited format used in spreadsheet applications
http://www.bom.gov.au/fwo/IDN60901/IDN60901.94768.axf

JavaScript Object Notation format (JSON) in row-major order
http://www.bom.gov.au/fwo/IDN60901/IDN60901.94768.json